createdAt,value
2023-03-24T00:00:43.544Z,7.50
2023-03-24T00:03:13.215Z,7.52
2023-03-24T00:05:43.766Z,7.58
2023-03-24T00:08:13.169Z,7.56
2023-03-24T00:10:42.922Z,7.56
2023-03-24T00:13:16.171Z,7.58
2023-03-24T00:15:48.479Z,7.49
2023-03-24T00:18:25.784Z,7.53
2023-03-24T00:20:58.382Z,7.60
2023-03-24T00:23:32.086Z,7.60
2023-03-24T00:26:03.966Z,7.45
2023-03-24T00:28:42.502Z,7.56
2023-03-24T00:31:14.347Z,7.65
2023-03-24T00:33:48.774Z,7.72
2023-03-24T00:36:19.242Z,7.67
2023-03-24T00:39:00.119Z,7.56
2023-03-24T00:41:30.111Z,7.64
2023-03-24T00:44:03.450Z,7.65
2023-03-24T00:46:33.731Z,7.64
2023-03-24T00:49:11.965Z,7.63
2023-03-24T00:51:43.428Z,7.63
2023-03-24T00:54:16.010Z,7.65
2023-03-24T00:56:49.251Z,7.63
2023-03-24T00:59:21.087Z,7.60
2023-03-24T01:01:50.529Z,7.57
2023-03-24T01:04:20.330Z,7.54
2023-03-24T01:06:57.953Z,7.44
2023-03-24T01:09:27.645Z,7.33
2023-03-24T01:12:02.084Z,7.40
2023-03-24T01:14:34.685Z,7.39
2023-03-24T01:17:06.160Z,7.39
2023-03-24T01:19:36.036Z,7.39
2023-03-24T01:22:05.422Z,7.43
2023-03-24T01:24:34.929Z,7.39
2023-03-24T01:27:04.281Z,7.43
2023-03-24T01:29:35.682Z,7.49
2023-03-24T01:32:05.272Z,7.37
2023-03-24T01:34:34.668Z,7.51
2023-03-24T01:37:04.644Z,7.55
2023-03-24T01:39:39.038Z,7.63
2023-03-24T01:42:19.694Z,7.68
2023-03-24T01:44:53.004Z,7.67
2023-03-24T01:47:35.105Z,7.68
2023-03-24T01:50:06.353Z,7.76
2023-03-24T01:52:38.867Z,7.83
2023-03-24T01:55:13.779Z,7.83
2023-03-24T01:57:46.383Z,7.86
2023-03-24T02:00:24.807Z,7.71
2023-03-24T02:03:20.630Z,7.81
2023-03-24T02:05:57.485Z,7.75
2023-03-24T02:08:33.627Z,7.64
2023-03-24T02:11:09.141Z,7.53
2023-03-24T02:13:53.320Z,7.43
2023-03-24T02:16:40.733Z,7.24
2023-03-24T02:19:40.458Z,7.11
2023-03-24T02:22:49.731Z,7.20
2023-03-24T02:28:45.738Z,6.74
2023-03-24T02:31:35.623Z,7.00
2023-03-24T02:34:40.717Z,6.98
2023-03-24T02:37:34.468Z,6.98
2023-03-24T02:40:28.590Z,7.02
2023-03-24T02:43:25.693Z,7.03
2023-03-24T02:46:13.122Z,7.04
2023-03-24T02:49:11.538Z,7.07
2023-03-24T02:51:49.485Z,7.07
2023-03-24T02:54:28.306Z,7.09
2023-03-24T02:57:06.802Z,7.19
2023-03-24T03:00:02.507Z,7.10
2023-03-24T03:03:08.576Z,7.23
2023-03-24T03:05:43.315Z,7.23
2023-03-24T03:08:16.974Z,6.83
2023-03-24T03:10:55.490Z,7.22
2023-03-24T03:13:32.288Z,7.27
2023-03-24T03:16:07.907Z,7.26
2023-03-24T03:18:43.720Z,6.93
2023-03-24T03:23:56.196Z,7.29
2023-03-24T03:26:32.290Z,7.27
2023-03-24T03:29:08.937Z,7.18
2023-03-24T03:31:42.339Z,7.37
2023-03-24T03:34:19.843Z,7.35
2023-03-24T03:36:52.842Z,7.30
2023-03-24T03:39:29.674Z,7.57
2023-03-24T03:44:44.544Z,7.59
2023-03-24T03:47:14.864Z,7.73
2023-03-24T03:49:48.024Z,7.71
2023-03-24T03:52:18.618Z,7.80
2023-03-24T03:54:51.631Z,7.84
2023-03-24T03:57:22.401Z,7.87
2023-03-24T04:00:23.503Z,7.92
2023-03-24T04:03:30.059Z,7.99
2023-03-24T04:06:03.841Z,8.00
2023-03-24T04:08:52.670Z,8.05
2023-03-24T04:11:38.156Z,8.10
2023-03-24T04:14:56.218Z,8.15
2023-03-24T04:17:46.393Z,8.12
2023-03-24T04:20:28.702Z,8.22
2023-03-24T04:23:16.226Z,8.27
2023-03-24T04:25:56.386Z,8.29
2023-03-24T04:28:31.467Z,8.32
2023-03-24T04:33:58.200Z,8.31
2023-03-24T04:36:34.512Z,8.27
2023-03-24T04:39:31.468Z,8.22
2023-03-24T04:42:07.992Z,8.22
2023-03-24T04:44:37.992Z,8.05
2023-03-24T04:47:50.563Z,8.16
2023-03-24T04:50:43.254Z,8.15
2023-03-24T04:53:22.559Z,8.10
2023-03-24T04:56:10.098Z,8.12
2023-03-24T04:59:00.904Z,8.14
2023-03-24T05:01:31.282Z,8.11
2023-03-24T05:04:30.596Z,8.11
2023-03-24T05:07:13.348Z,8.05
2023-03-24T05:09:42.641Z,7.97
2023-03-24T05:12:12.645Z,7.93
2023-03-24T05:14:48.409Z,7.95
2023-03-24T05:17:18.645Z,7.93
2023-03-24T05:19:48.141Z,7.95
2023-03-24T05:22:19.251Z,7.89
2023-03-24T05:24:48.649Z,7.87
2023-03-24T05:27:18.017Z,7.86
2023-03-24T05:29:52.787Z,7.85
2023-03-24T05:32:27.041Z,7.85
2023-03-24T05:35:06.440Z,7.79
2023-03-24T05:37:38.295Z,7.83
2023-03-24T05:40:14.621Z,7.81
2023-03-24T05:42:59.416Z,7.80
2023-03-24T05:45:33.482Z,7.79
2023-03-24T05:48:05.620Z,7.82
2023-03-24T05:51:00.313Z,7.83
2023-03-24T05:53:32.892Z,7.83
2023-03-24T05:56:27.671Z,7.86
2023-03-24T05:59:19.668Z,7.83
2023-03-24T06:02:01.559Z,7.73
2023-03-24T06:04:53.615Z,7.95
2023-03-24T06:07:30.475Z,7.97
2023-03-24T06:10:09.994Z,7.99
2023-03-24T06:12:46.808Z,7.96
2023-03-24T06:15:28.280Z,8.16
2023-03-24T06:18:12.576Z,8.08
2023-03-24T06:20:42.061Z,8.27
2023-03-24T06:23:15.126Z,8.31
2023-03-24T06:26:11.148Z,8.46
2023-03-24T06:28:51.590Z,8.26
2023-03-24T06:31:21.213Z,8.25
2023-03-24T06:33:58.611Z,8.43
2023-03-24T06:36:28.033Z,8.35
2023-03-24T06:39:05.473Z,8.35
2023-03-24T06:41:37.234Z,8.22
2023-03-24T06:44:07.213Z,8.09
2023-03-24T06:46:42.303Z,8.14
2023-03-24T06:49:12.199Z,8.23
2023-03-24T06:51:41.540Z,8.30
2023-03-24T06:54:18.453Z,8.33
2023-03-24T06:56:49.943Z,8.41
2023-03-24T06:59:23.526Z,8.39
2023-03-24T07:01:59.445Z,8.39
2023-03-24T07:08:10.258Z,8.71
2023-03-24T07:10:51.304Z,8.96
2023-03-24T07:13:22.596Z,9.01
2023-03-24T07:15:59.375Z,9.01
2023-03-24T07:18:28.796Z,9.05
2023-03-24T07:21:02.762Z,9.02
2023-03-24T07:23:37.824Z,9.00
2023-03-24T07:26:35.484Z,8.96
2023-03-24T07:29:16.696Z,8.76
2023-03-24T07:32:15.220Z,8.59
2023-03-24T07:34:51.002Z,8.50
2023-03-24T07:37:20.363Z,8.50
2023-03-24T07:39:49.603Z,8.36
2023-03-24T07:42:19.020Z,8.40
2023-03-24T07:45:11.454Z,8.33
2023-03-24T07:47:41.652Z,8.20
2023-03-24T07:50:17.476Z,8.31
2023-03-24T07:52:50.594Z,8.27
2023-03-24T07:55:25.846Z,8.24
2023-03-24T07:58:11.270Z,8.29
2023-03-24T08:00:47.795Z,8.24
2023-03-24T08:03:27.397Z,8.27
2023-03-24T08:06:20.028Z,8.13
2023-03-24T08:09:00.474Z,8.07
2023-03-24T08:11:30.197Z,8.07
2023-03-24T08:13:59.765Z,8.04
2023-03-24T08:16:31.417Z,8.00
2023-03-24T08:19:07.330Z,8.09
2023-03-24T08:21:36.790Z,8.00
2023-03-24T08:24:06.491Z,7.88
2023-03-24T08:26:36.061Z,7.99
2023-03-24T08:29:05.718Z,7.95
2023-03-24T08:31:38.041Z,8.08
2023-03-24T08:34:13.484Z,8.26
2023-03-24T08:36:47.824Z,8.30
2023-03-24T08:39:17.401Z,8.28
2023-03-24T08:41:47.060Z,8.47
2023-03-24T08:44:16.366Z,8.51
2023-03-24T08:46:47.878Z,8.75
2023-03-24T08:49:17.374Z,8.94
2023-03-24T08:51:46.753Z,8.95
2023-03-24T08:54:23.254Z,9.03
2023-03-24T08:56:52.733Z,9.01
2023-03-24T08:59:21.921Z,9.14
2023-03-24T09:01:53.079Z,9.29
2023-03-24T09:04:22.384Z,9.37
2023-03-24T09:06:53.327Z,9.34
2023-03-24T09:09:22.668Z,9.32
2023-03-24T09:11:51.865Z,9.37
2023-03-24T09:14:27.695Z,9.36
2023-03-24T09:16:58.997Z,9.30
2023-03-24T09:19:33.860Z,9.26
2023-03-24T09:22:03.027Z,9.25
2023-03-24T09:24:32.270Z,9.18
2023-03-24T09:27:01.526Z,9.04
2023-03-24T09:29:37.170Z,9.12
2023-03-24T09:34:43.602Z,8.88
2023-03-24T09:37:12.876Z,8.85
2023-03-24T09:39:42.224Z,8.72
2023-03-24T09:42:22.113Z,8.88
2023-03-24T09:44:56.803Z,8.86
2023-03-24T09:47:39.574Z,8.83
2023-03-24T09:50:27.469Z,8.84
2023-03-24T09:53:00.211Z,8.81
2023-03-24T09:55:31.231Z,8.89
2023-03-24T09:58:05.077Z,8.95
2023-03-24T10:03:22.408Z,9.03
2023-03-24T10:06:03.684Z,9.24
2023-03-24T10:08:37.624Z,9.21
2023-03-24T10:11:20.169Z,9.07
2023-03-24T10:14:07.589Z,8.94
2023-03-24T10:16:44.352Z,8.85
2023-03-24T10:19:30.591Z,8.78
2023-03-24T10:22:06.257Z,8.80
2023-03-24T10:24:44.488Z,8.70
2023-03-24T10:27:22.825Z,8.70
2023-03-24T10:29:56.604Z,8.61
2023-03-24T10:32:30.724Z,8.56
2023-03-24T10:35:09.295Z,8.55
2023-03-24T10:37:44.514Z,8.40
2023-03-24T10:40:20.277Z,8.50
2023-03-24T10:43:07.431Z,8.59
2023-03-24T10:45:47.823Z,8.43
2023-03-24T10:48:36.415Z,8.48
2023-03-24T10:51:09.382Z,8.49
2023-03-24T10:53:51.806Z,8.52
2023-03-24T10:56:39.147Z,8.48
2023-03-24T10:59:20.352Z,8.49
2023-03-24T11:01:52.058Z,8.67
2023-03-24T11:04:22.782Z,8.77
2023-03-24T11:07:13.068Z,9.00
2023-03-24T11:09:44.499Z,9.25
2023-03-24T11:12:25.329Z,9.41
2023-03-24T11:15:19.671Z,9.40
2023-03-24T11:17:58.124Z,9.41
2023-03-24T11:20:32.342Z,9.33
2023-03-24T11:23:06.287Z,9.47
2023-03-24T11:25:38.720Z,9.37
2023-03-24T11:28:11.037Z,9.35
2023-03-24T11:30:53.060Z,9.34
2023-03-24T11:33:35.939Z,9.53
2023-03-24T11:36:14.634Z,9.88
2023-03-24T11:38:48.250Z,10.14
2023-03-24T11:41:23.730Z,10.28
2023-03-24T11:43:52.980Z,10.26
2023-03-24T11:46:23.108Z,10.30
2023-03-24T11:48:55.320Z,10.26
2023-03-24T11:51:30.486Z,10.45
2023-03-24T11:56:47.122Z,10.53
2023-03-24T11:59:23.544Z,10.59
2023-03-24T12:02:00.181Z,10.43
2023-03-24T12:07:56.126Z,10.63
2023-03-24T12:10:38.902Z,10.57
2023-03-24T12:13:22.008Z,10.65
2023-03-24T12:16:02.517Z,10.63
2023-03-24T12:18:57.533Z,10.62
2023-03-24T12:21:47.205Z,10.56
2023-03-24T12:24:29.315Z,10.48
2023-03-24T12:27:02.314Z,10.31
2023-03-24T12:29:47.289Z,10.09
2023-03-24T12:32:38.578Z,9.91
2023-03-24T12:35:53.108Z,9.76
2023-03-24T12:38:32.211Z,9.52
2023-03-24T12:41:15.662Z,9.40
2023-03-24T12:43:56.779Z,9.49
2023-03-24T12:53:08.722Z,9.58
2023-03-24T12:55:45.559Z,9.63
2023-03-24T12:58:25.130Z,9.66
2023-03-24T13:01:05.037Z,9.70
2023-03-24T13:03:41.058Z,9.77
2023-03-24T13:06:18.464Z,9.94
2023-03-24T13:09:08.597Z,10.00
2023-03-24T13:11:50.275Z,10.06
2023-03-24T13:14:30.928Z,10.17
2023-03-24T13:17:12.418Z,10.11
2023-03-24T13:19:43.548Z,10.14
2023-03-24T13:22:18.740Z,10.01
2023-03-24T13:24:50.857Z,9.91
2023-03-24T13:27:25.632Z,9.80
2023-03-24T13:30:13.833Z,9.75
2023-03-24T13:32:46.905Z,10.07
2023-03-24T13:35:23.852Z,10.21
2023-03-24T13:37:57.058Z,10.24
2023-03-24T13:40:32.280Z,10.23
2023-03-24T13:43:09.031Z,10.33
2023-03-24T13:45:51.231Z,10.03
2023-03-24T13:48:37.717Z,9.59
2023-03-24T13:51:18.131Z,9.68
2023-03-24T13:53:53.323Z,9.64
2023-03-24T13:56:34.404Z,9.65
2023-03-24T13:59:29.193Z,9.80
2023-03-24T14:05:08.726Z,9.70
2023-03-24T14:07:48.134Z,9.89
2023-03-24T14:10:40.007Z,9.86
2023-03-24T14:13:37.692Z,9.72
2023-03-24T14:16:30.264Z,9.80
2023-03-24T14:19:17.273Z,9.88
2023-03-24T14:21:47.319Z,9.86
2023-03-24T14:24:25.623Z,9.85
2023-03-24T14:27:22.397Z,9.85
2023-03-24T14:29:54.184Z,9.77
2023-03-24T14:32:23.536Z,9.76
2023-03-24T14:35:04.279Z,9.51
2023-03-24T14:37:39.380Z,9.44
2023-03-24T14:40:29.547Z,9.47
2023-03-24T14:43:06.806Z,9.40
2023-03-24T14:46:03.407Z,9.30
2023-03-24T14:48:40.381Z,9.34
2023-03-24T14:51:25.383Z,9.33
2023-03-24T14:54:06.955Z,9.31
2023-03-24T14:56:44.280Z,9.28
2023-03-24T14:59:24.529Z,9.24
2023-03-24T15:02:04.882Z,9.27
2023-03-24T15:04:38.976Z,9.23
2023-03-24T15:07:08.362Z,9.29
2023-03-24T15:09:39.552Z,9.19
2023-03-24T15:12:08.880Z,9.15
2023-03-24T15:17:27.112Z,9.01
2023-03-24T15:19:57.558Z,9.14
2023-03-24T15:22:26.922Z,9.09
2023-03-24T15:25:00.316Z,9.04
2023-03-24T15:27:33.348Z,9.01
2023-03-24T15:30:02.981Z,9.02
2023-03-24T15:32:38.650Z,8.98
2023-03-24T15:35:19.562Z,9.05
2023-03-24T15:37:53.628Z,8.95
2023-03-24T15:40:41.360Z,8.95
2023-03-24T15:43:21.226Z,8.94
2023-03-24T15:46:04.767Z,8.84
2023-03-24T15:48:46.081Z,8.85
2023-03-24T15:51:15.730Z,8.71
2023-03-24T15:53:48.851Z,8.66
2023-03-24T15:56:22.458Z,8.64
2023-03-24T15:58:55.101Z,8.68
2023-03-24T16:01:35.608Z,8.53
2023-03-24T16:04:09.886Z,8.56
2023-03-24T16:09:21.343Z,8.43
2023-03-24T16:11:51.319Z,8.54
2023-03-24T16:14:29.679Z,8.61
2023-03-24T16:17:01.905Z,8.48
2023-03-24T16:19:38.298Z,8.62
2023-03-24T16:22:21.983Z,8.56
2023-03-24T16:24:51.430Z,8.38
2023-03-24T16:27:20.836Z,8.40
2023-03-24T16:32:27.822Z,8.40
2023-03-24T16:35:04.121Z,8.43
2023-03-24T16:37:38.923Z,8.51
2023-03-24T16:40:21.160Z,8.55
2023-03-24T16:42:50.622Z,8.36
2023-03-24T16:45:19.794Z,8.46
2023-03-24T16:47:54.296Z,8.40
2023-03-24T16:50:30.787Z,8.50
2023-03-24T16:53:00.402Z,8.44
2023-03-24T16:55:29.692Z,8.38
2023-03-24T16:58:00.318Z,8.40
2023-03-24T17:00:37.074Z,8.22
2023-03-24T17:03:07.735Z,8.44
2023-03-24T17:05:48.655Z,8.45
2023-03-24T17:08:20.516Z,8.42
2023-03-24T17:11:01.279Z,8.44
2023-03-24T17:13:30.631Z,8.43
2023-03-24T17:15:59.882Z,8.31
2023-03-24T17:18:29.294Z,8.43
2023-03-24T17:21:04.964Z,8.39
2023-03-24T17:23:34.469Z,8.38
2023-03-24T17:26:03.870Z,8.38
2023-03-24T17:28:33.050Z,8.33
2023-03-24T17:31:07.427Z,8.28
2023-03-24T17:33:42.139Z,8.18
2023-03-24T17:36:17.607Z,7.99
2023-03-24T17:38:47.657Z,7.85
2023-03-24T17:41:16.924Z,7.73
2023-03-24T17:43:48.119Z,7.55
2023-03-24T17:46:17.543Z,7.45
2023-03-24T17:48:49.779Z,7.32
2023-03-24T17:51:21.229Z,7.31
2023-03-24T17:53:50.545Z,7.04
2023-03-24T17:56:19.840Z,7.00
2023-03-24T17:59:01.901Z,6.88
2023-03-24T18:01:34.860Z,6.82
2023-03-24T18:04:04.361Z,6.67
2023-03-24T18:06:35.581Z,6.78
2023-03-24T18:09:11.362Z,6.76
2023-03-24T18:11:41.107Z,6.76
2023-03-24T18:14:10.863Z,6.69
2023-03-24T18:16:50.504Z,6.74
2023-03-24T18:19:22.783Z,6.67
2023-03-24T18:21:54.011Z,6.59
2023-03-24T18:24:25.035Z,6.56
2023-03-24T18:26:59.400Z,6.52
2023-03-24T18:29:28.855Z,6.51
2023-03-24T18:31:58.340Z,6.55
2023-03-24T18:34:27.730Z,6.61
2023-03-24T18:36:59.221Z,6.59
2023-03-24T18:39:28.762Z,6.64
2023-03-24T18:41:57.999Z,6.63
2023-03-24T18:44:28.187Z,6.65
2023-03-24T18:46:57.548Z,6.79
2023-03-24T18:49:26.956Z,6.77
2023-03-24T18:52:06.696Z,6.68
2023-03-24T18:54:40.809Z,6.67
2023-03-24T18:57:11.155Z,6.43
2023-03-24T18:59:45.673Z,6.45
2023-03-24T19:02:15.247Z,6.41
2023-03-24T19:04:45.947Z,6.17
2023-03-24T19:07:29.091Z,6.21
2023-03-24T19:09:59.573Z,6.12
2023-03-24T19:12:28.847Z,6.06
2023-03-24T19:15:04.592Z,6.05
2023-03-24T19:17:39.148Z,6.03
2023-03-24T19:20:09.991Z,5.94
2023-03-24T19:22:41.876Z,5.82
2023-03-24T19:25:22.927Z,5.87
2023-03-24T19:27:57.930Z,5.62
2023-03-24T19:30:32.637Z,5.72
2023-03-24T19:33:02.441Z,5.62
2023-03-24T19:35:31.958Z,5.59
2023-03-24T19:38:08.499Z,5.59
2023-03-24T19:40:37.852Z,5.66
2023-03-24T19:43:07.185Z,5.54
2023-03-24T19:45:42.657Z,5.59
2023-03-24T19:48:12.439Z,5.53
2023-03-24T19:50:41.767Z,5.46
2023-03-24T19:53:13.325Z,5.46
2023-03-24T19:55:42.708Z,5.42
2023-03-24T19:58:12.015Z,5.32
2023-03-24T20:00:41.918Z,5.34
2023-03-24T20:03:11.417Z,5.18
2023-03-24T20:05:46.071Z,5.29
2023-03-24T20:08:18.762Z,5.14
2023-03-24T20:10:59.340Z,5.22
2023-03-24T20:13:28.633Z,5.19
2023-03-24T20:15:57.932Z,5.19
2023-03-24T20:18:27.479Z,5.10
2023-03-24T20:21:01.784Z,5.12
2023-03-24T20:23:38.103Z,5.08
2023-03-24T20:26:07.623Z,5.04
2023-03-24T20:28:42.915Z,5.03
2023-03-24T20:31:13.336Z,5.02
2023-03-24T20:33:42.703Z,4.98
2023-03-24T20:41:24.270Z,4.88
2023-03-24T20:43:53.701Z,4.79
2023-03-24T20:46:30.036Z,4.88
2023-03-24T20:48:59.322Z,4.82
2023-03-24T20:51:28.903Z,4.79
2023-03-24T20:54:07.556Z,4.78
2023-03-24T20:56:37.013Z,4.78
2023-03-24T20:59:13.489Z,4.72
2023-03-24T21:01:42.790Z,4.72
2023-03-24T21:04:12.646Z,4.76
2023-03-24T21:06:47.619Z,4.73
2023-03-24T21:09:21.925Z,4.61
2023-03-24T21:11:56.511Z,4.70
2023-03-24T21:14:26.944Z,4.74
2023-03-24T21:16:56.307Z,4.75
2023-03-24T21:19:25.674Z,4.77
2023-03-24T21:21:58.889Z,4.77
2023-03-24T21:24:30.148Z,4.69
2023-03-24T21:27:04.406Z,4.77
2023-03-24T21:29:33.667Z,4.71
2023-03-24T21:32:03.040Z,4.84
2023-03-24T21:34:32.212Z,4.87
2023-03-24T21:37:07.629Z,4.87
2023-03-24T21:39:38.875Z,4.97
2023-03-24T21:42:13.342Z,5.00
2023-03-24T21:44:53.778Z,5.10
2023-03-24T21:47:24.657Z,5.11
2023-03-24T21:49:58.623Z,5.11
2023-03-24T21:52:36.048Z,5.00
2023-03-24T21:55:08.250Z,5.04
2023-03-24T21:57:37.904Z,5.07
2023-03-24T22:00:14.078Z,5.07
2023-03-24T22:02:50.871Z,5.07
2023-03-24T22:05:27.305Z,5.13
2023-03-24T22:10:34.442Z,5.04
2023-03-24T22:13:05.467Z,5.01
2023-03-24T22:15:37.817Z,4.77
2023-03-24T22:18:07.451Z,4.72
2023-03-24T22:20:37.588Z,4.90
2023-03-24T22:23:12.824Z,4.90
2023-03-24T22:25:44.100Z,4.87
2023-03-24T22:28:13.344Z,4.83
2023-03-24T22:30:43.113Z,4.78
2023-03-24T22:33:23.052Z,4.78
2023-03-24T22:35:56.470Z,4.87
2023-03-24T22:38:27.518Z,4.88
2023-03-24T22:41:00.946Z,4.78
2023-03-24T22:43:38.964Z,4.94
2023-03-24T22:46:11.790Z,4.79
2023-03-24T22:48:41.692Z,4.78
2023-03-24T22:51:18.769Z,4.95
2023-03-24T22:53:53.343Z,4.76
2023-03-24T22:56:25.448Z,4.78
2023-03-24T22:58:55.360Z,4.84
2023-03-24T23:01:30.145Z,4.78
2023-03-24T23:04:00.355Z,4.65
2023-03-24T23:06:29.673Z,4.55
2023-03-24T23:08:59.174Z,4.51
2023-03-24T23:11:30.660Z,4.42
2023-03-24T23:14:04.838Z,4.32
2023-03-24T23:16:43.114Z,4.28
2023-03-24T23:19:13.576Z,4.22
2023-03-24T23:21:42.808Z,4.19
2023-03-24T23:24:17.032Z,4.13
2023-03-24T23:26:50.661Z,4.04
2023-03-24T23:29:30.032Z,3.90
2023-03-24T23:31:59.346Z,4.02
2023-03-24T23:34:28.939Z,3.98
2023-03-24T23:36:58.444Z,3.93
2023-03-24T23:39:27.937Z,3.91
2023-03-24T23:41:59.289Z,3.88
2023-03-24T23:44:28.511Z,3.86
2023-03-24T23:46:58.006Z,3.76
2023-03-24T23:49:27.660Z,3.85
2023-03-24T23:52:00.901Z,3.83
2023-03-24T23:54:31.926Z,3.81
2023-03-24T23:57:04.338Z,3.75
2023-03-24T23:59:46.289Z,3.74
